Time;durP1;ratioP1;P1;durP2;ratioP2;P2;SDS_P1;SDS_P2;PMS_P1;PMS_P2;Temp;Humidity;BMP_temperature;BMP_pressure;BME280_temperature;BME280_humidity;BME280_pressure;Samples;Min_cycle;Max_cycle;Signal;HPM_P1;HPM_P2
2022/08/13 00:02:32;;;;;;;31.95;23.35;;;;;;;18.57;97.26;94571.17;1753930;79;21343;-51
2022/08/13 00:04:33;;;;;;;29.75;22.85;;;;;;;18.55;97.02;94570.14;1738305;79;20962;-52
2022/08/13 00:09:27;;;;;;;34.45;25.27;;;;;;;18.56;97.09;94572.44;1749370;81;21046;-52
2022/08/13 00:14:40;;;;;;;34.58;24.82;;;;;;;18.47;96.77;94561.51;1663820;85;21275;-52
2022/08/13 00:17:08;;;;;;;28.27;22.50;;;;;;;18.39;96.95;94554.91;1720141;81;21036;-53
2022/08/13 00:19:38;;;;;;;30.23;23.25;;;;;;;18.37;97.43;94559.45;1738406;81;21030;-52
2022/08/13 00:22:06;;;;;;;35.83;25.68;;;;;;;18.36;97.72;94547.56;1732401;80;21470;-51
2022/08/13 00:24:34;;;;;;;33.92;25.52;;;;;;;18.40;97.96;94547.30;1689708;82;20972;-52
2022/08/13 00:27:01;;;;;;;34.43;25.12;;;;;;;18.35;97.93;94539.70;1751772;81;21157;-52
2022/08/13 00:29:29;;;;;;;31.15;23.30;;;;;;;18.30;98.25;94543.98;1756205;81;20922;-52
2022/08/13 00:31:55;;;;;;;30.00;22.42;;;;;;;18.31;98.75;94542.72;1749689;79;20950;-51
2022/08/13 00:34:23;;;;;;;30.02;23.38;;;;;;;18.31;98.60;94540.58;1715188;81;21174;-52
2022/08/13 00:36:50;;;;;;;32.60;24.20;;;;;;;18.27;98.76;94538.02;1721354;81;21001;-51
2022/08/13 00:39:17;;;;;;;36.28;25.97;;;;;;;18.21;99.21;94541.41;1721824;80;21292;-52
2022/08/13 00:41:45;;;;;;;31.95;24.02;;;;;;;18.19;99.75;94541.77;1751220;80;22281;-52
2022/08/13 00:44:16;;;;;;;32.15;23.00;;;;;;;18.16;100.00;94537.20;1724675;81;20973;-52
2022/08/13 00:46:44;;;;;;;27.15;22.85;;;;;;;18.15;100.00;94530.75;1750786;80;21002;-51
2022/08/13 00:49:12;;;;;;;32.05;26.10;;;;;;;18.13;100.00;94535.42;1753153;81;21014;-52
2022/08/13 00:51:40;;;;;;;36.70;27.48;;;;;;;18.10;100.00;94529.47;1752951;79;21242;-51
2022/08/13 00:54:11;;;;;;;35.05;25.32;;;;;;;18.09;100.00;94531.34;1747907;81;21025;-52
2022/08/13 00:56:38;;;;;;;32.15;23.25;;;;;;;18.04;100.00;94531.45;1706263;81;21033;-52
2022/08/13 00:59:14;;;;;;;29.25;23.10;;;;;;;18.03;100.00;94529.93;1747009;81;20975;-52
2022/08/13 01:01:44;;;;;;;33.60;24.30;;;;;;;18.02;100.00;94527.02;1732730;81;20975;-52
2022/08/13 01:04:11;;;;;;;31.52;24.80;;;;;;;18.04;100.00;94528.66;1748237;81;21794;-51
2022/08/13 01:06:39;;;;;;;33.25;24.67;;;;;;;18.12;100.00;94524.77;1750600;79;21002;-52
2022/08/13 01:09:08;;;;;;;30.92;23.95;;;;;;;18.17;100.00;94525.45;1708397;82;21455;-52
2022/08/13 01:11:34;;;;;;;29.65;22.50;;;;;;;18.24;100.00;94522.94;1733810;81;20978;-52
2022/08/13 01:14:07;;;;;;;31.75;22.77;;;;;;;18.27;100.00;94518.53;1749677;80;21068;-52
2022/08/13 01:16:36;;;;;;;35.60;25.77;;;;;;;18.29;100.00;94518.04;1713191;80;21323;-52
2022/08/13 01:19:09;;;;;;;32.17;25.92;;;;;;;18.30;100.00;94517.52;1735351;80;20982;-52
2022/08/13 01:21:42;;;;;;;28.57;23.35;;;;;;;18.29;100.00;94514.61;1742169;81;21061;-52
2022/08/13 01:24:10;;;;;;;27.52;22.52;;;;;;;18.30;100.00;94507.03;1692546;82;21003;-52
2022/08/13 01:26:39;;;;;;;29.27;22.82;;;;;;;18.30;100.00;94502.84;1714993;79;21009;-52
2022/08/13 01:29:08;;;;;;;32.10;24.52;;;;;;;18.32;100.00;94499.67;1729592;81;21085;-51
2022/08/13 01:31:36;;;;;;;36.10;26.10;;;;;;;18.35;100.00;94502.87;1741739;80;20973;-51
2022/08/13 01:34:03;;;;;;;34.23;25.62;;;;;;;18.39;100.00;94498.42;1723754;81;21006;-52
2022/08/13 01:36:31;;;;;;;36.23;24.90;;;;;;;18.40;100.00;94492.98;1720849;80;21057;-52
2022/08/13 01:39:05;;;;;;;32.88;25.10;;;;;;;18.41;100.00;94487.53;1737028;80;20993;-51
2022/08/13 01:41:29;;;;;;;31.45;25.35;;;;;;;18.42;100.00;94482.87;1751959;81;21314;-52
2022/08/13 01:44:15;;;;;;;34.33;25.50;;;;;;;18.45;99.91;94486.03;1748994;80;21069;-53
2022/08/13 01:50:28;;;;;;;33.67;26.35;;;;;;;18.46;99.68;94480.59;1730959;81;21160;-53
2022/08/13 01:51:47;;;;;;;28.95;23.07;;;;;;;18.38;99.29;94483.75;1750893;79;21061;-52
2022/08/13 01:54:17;;;;;;;34.15;26.15;;;;;;;18.32;100.00;94477.39;1667927;82;21153;-52
2022/08/13 01:56:44;;;;;;;31.73;25.08;;;;;;;18.32;100.00;94467.64;1732534;82;21021;-52
2022/08/13 01:59:12;;;;;;;33.20;24.65;;;;;;;18.31;100.00;94468.91;1678324;82;21063;-52
2022/08/13 02:01:40;;;;;;;29.95;22.75;;;;;;;18.31;100.00;94468.16;1673768;84;21091;-52
2022/08/13 02:04:13;;;;;;;30.10;23.38;;;;;;;18.31;100.00;94463.98;1745138;81;21009;-52
2022/08/13 02:06:40;;;;;;;34.50;25.30;;;;;;;18.27;100.00;94464.22;1725153;80;21770;-52
2022/08/13 02:09:08;;;;;;;30.43;25.32;;;;;;;18.23;100.00;94460.90;1728150;81;21014;-52
2022/08/13 02:11:36;;;;;;;34.55;24.85;;;;;;;18.18;100.00;94462.27;1743078;81;21487;-51
2022/08/13 02:14:05;;;;;;;30.55;24.27;;;;;;;18.11;100.00;94461.38;1751226;79;20979;-52
2022/08/13 02:16:36;;;;;;;31.60;22.02;;;;;;;18.06;100.00;94457.95;1748263;81;20985;-51
2022/08/13 02:19:07;;;;;;;27.23;21.03;;;;;;;18.04;100.00;94462.50;1749554;79;21447;-51
2022/08/13 02:21:37;;;;;;;29.90;23.32;;;;;;;18.03;100.00;94467.94;1752457;80;21006;-51
2022/08/13 02:24:08;;;;;;;34.18;26.10;;;;;;;17.98;100.00;94463.86;1734016;82;21026;-51
2022/08/13 02:26:38;;;;;;;36.50;24.87;;;;;;;17.94;100.00;94468.14;1735129;82;21455;-51
2022/08/13 02:29:07;;;;;;;29.50;23.07;;;;;;;17.92;100.00;94458.14;1713539;82;21057;-51
2022/08/13 02:31:36;;;;;;;31.02;23.02;;;;;;;17.92;100.00;94463.70;1721073;82;21137;-51
2022/08/13 02:34:05;;;;;;;28.62;23.00;;;;;;;17.90;100.00;94459.28;1694574;82;20963;-52
2022/08/13 02:36:34;;;;;;;32.70;26.02;;;;;;;17.92;100.00;94460.92;1740395;81;21545;-52
2022/08/13 02:39:04;;;;;;;33.33;26.73;;;;;;;17.92;100.00;94458.14;1754791;80;21858;-51
2022/08/13 02:41:38;;;;;;;32.33;24.85;;;;;;;17.95;100.00;94455.75;1716847;81;21013;-51
2022/08/13 02:44:07;;;;;;;31.87;24.18;;;;;;;17.98;100.00;94462.47;1749237;80;21149;-51
2022/08/13 02:46:35;;;;;;;31.85;23.22;;;;;;;18.03;100.00;94453.37;1740129;81;20986;-52
2022/08/13 02:49:04;;;;;;;33.70;25.85;;;;;;;18.05;100.00;94455.66;1722003;82;20985;-51
2022/08/13 02:51:32;;;;;;;36.33;26.73;;;;;;;18.03;100.00;94455.41;1749474;81;21038;-52
2022/08/13 02:54:00;;;;;;;30.68;23.25;;;;;;;18.02;100.00;94455.28;1722611;81;21603;-51
2022/08/13 02:56:28;;;;;;;28.85;22.93;;;;;;;18.05;100.00;94448.70;1746107;80;21254;-51
2022/08/13 02:58:56;;;;;;;30.88;23.20;;;;;;;18.09;100.00;94452.00;1752349;79;21431;-52
2022/08/13 03:01:25;;;;;;;32.80;24.20;;;;;;;18.10;100.00;94453.52;1751172;80;21096;-51
2022/08/13 03:03:54;;;;;;;38.05;26.42;;;;;;;18.06;100.00;94451.61;1755988;81;21077;-51
2022/08/13 03:06:22;;;;;;;32.65;25.62;;;;;;;18.00;100.00;94448.81;1730057;82;21002;-51
2022/08/13 03:08:52;;;;;;;37.48;23.45;;;;;;;17.97;100.00;94449.07;1731474;82;21781;-53
2022/08/13 03:11:20;;;;;;;31.73;22.67;;;;;;;17.95;100.00;94441.83;1748341;80;21009;-53
2022/08/13 03:14:08;;;;;;;33.08;24.30;;;;;;;17.93;100.00;94451.31;1748709;79;21584;-52
2022/08/13 03:16:39;;;;;;;31.80;24.87;;;;;;;17.95;100.00;94445.38;1727812;81;21176;-53
2022/08/13 03:19:08;;;;;;;34.85;27.40;;;;;;;18.02;100.00;94442.75;1748548;81;21009;-52
2022/08/13 03:21:38;;;;;;;37.40;27.93;;;;;;;18.03;100.00;94445.66;1754501;80;21176;-52
2022/08/13 03:24:08;;;;;;;38.73;27.15;;;;;;;18.04;100.00;94447.19;1723102;82;20963;-51
2022/08/13 03:26:36;;;;;;;36.77;26.73;;;;;;;18.03;100.00;94442.23;1723797;82;20966;-51
2022/08/13 03:29:06;;;;;;;41.98;28.65;;;;;;;18.01;100.00;94443.37;1724489;82;21065;-53
2022/08/13 03:31:37;;;;;;;36.70;28.05;;;;;;;18.05;100.00;94441.73;1747780;81;21434;-51
2022/08/13 03:34:06;;;;;;;34.53;24.02;;;;;;;18.06;100.00;94441.87;1740825;79;21091;-52
2022/08/13 03:36:37;;;;;;;31.07;22.95;;;;;;;18.04;100.00;94441.61;1741053;81;20968;-52
2022/08/13 03:39:05;;;;;;;31.00;24.12;;;;;;;18.02;100.00;94444.14;1754853;81;21018;-51
2022/08/13 03:41:33;;;;;;;38.13;26.87;;;;;;;17.99;100.00;94447.29;1750165;79;20990;-52
2022/08/13 03:44:05;;;;;;;37.55;26.95;;;;;;;17.99;100.00;94438.94;1747976;79;21430;-53
2022/08/13 03:46:33;;;;;;;36.85;27.05;;;;;;;18.02;100.00;94440.71;1749255;79;21237;-52
2022/08/13 03:49:01;;;;;;;30.32;24.92;;;;;;;18.07;100.00;94442.00;1747970;81;20994;-52
2022/08/13 03:51:30;;;;;;;31.15;24.10;;;;;;;18.10;100.00;94434.03;1750099;80;21038;-50
2022/08/13 03:53:59;;;;;;;29.37;25.52;;;;;;;18.13;100.00;94430.23;1754700;80;20990;-52
2022/08/13 03:56:27;;;;;;;30.20;25.88;;;;;;;18.13;100.00;94441.37;1716287;81;20999;-51
2022/08/13 03:58:55;;;;;;;33.75;25.60;;;;;;;18.15;100.00;94438.88;1717753;81;22364;-51
2022/08/13 04:01:24;;;;;;;33.38;23.83;;;;;;;18.17;100.00;94440.52;1749271;79;21426;-54
2022/08/13 04:03:52;;;;;;;32.17;23.32;;;;;;;18.15;100.00;94434.69;1739942;80;21116;-54
2022/08/13 04:06:22;;;;;;;34.70;26.15;;;;;;;18.19;100.00;94434.55;1754990;81;21095;-52
2022/08/13 04:08:50;;;;;;;33.58;26.75;;;;;;;18.25;100.00;94437.48;1720587;82;21185;-51
2022/08/13 04:11:21;;;;;;;32.38;24.65;;;;;;;18.31;100.00;94432.70;1736013;82;21136;-52
2022/08/13 04:13:49;;;;;;;31.57;23.62;;;;;;;18.37;100.00;94429.92;1734170;82;21034;-51
2022/08/13 04:16:21;;;;;;;26.73;22.52;;;;;;;18.42;100.00;94427.15;1725079;82;21094;-51
2022/08/13 04:18:49;;;;;;;33.25;24.85;;;;;;;18.46;100.00;94434.63;1728654;82;21002;-52
2022/08/13 04:21:18;;;;;;;33.92;25.02;;;;;;;18.49;100.00;94435.64;1753243;80;21024;-52
2022/08/13 04:23:46;;;;;;;32.53;23.12;;;;;;;18.46;100.00;94432.48;1747873;82;21147;-51
2022/08/13 04:26:16;;;;;;;30.68;22.13;;;;;;;18.46;100.00;94435.27;1751041;80;21053;-51
2022/08/13 04:28:45;;;;;;;29.00;22.90;;;;;;;18.48;100.00;94432.09;1728930;82;20979;-52
2022/08/13 04:31:15;;;;;;;37.08;27.15;;;;;;;18.51;100.00;94440.08;1729092;82;21010;-52
2022/08/13 04:33:42;;;;;;;35.98;27.07;;;;;;;18.52;100.00;94436.80;1755957;81;21487;-52
2022/08/13 04:36:11;;;;;;;32.75;25.57;;;;;;;18.46;100.00;94428.30;1745935;80;21151;-51
2022/08/13 04:38:40;;;;;;;29.18;23.20;;;;;;;18.41;100.00;94433.99;1750620;80;21505;-51
2022/08/13 04:41:08;;;;;;;31.27;23.73;;;;;;;18.38;100.00;94429.43;1744878;81;21088;-53
2022/08/13 04:43:37;;;;;;;31.55;26.27;;;;;;;18.39;100.00;94428.16;1750882;79;21065;-52
2022/08/13 04:46:05;;;;;;;38.42;27.90;;;;;;;18.36;100.00;94427.78;1734589;81;21018;-52
2022/08/13 04:48:35;;;;;;;30.97;25.10;;;;;;;18.36;100.00;94427.02;1755108;81;21161;-52
2022/08/13 04:51:05;;;;;;;33.75;24.12;;;;;;;18.33;100.00;94426.63;1731379;82;20984;-51
2022/08/13 04:53:35;;;;;;;30.60;24.18;;;;;;;18.30;100.00;94417.25;1730303;82;21427;-54
2022/08/13 04:56:04;;;;;;;38.50;26.17;;;;;;;18.26;100.00;94425.08;1732310;82;21021;-52
2022/08/13 04:58:35;;;;;;;40.38;29.72;;;;;;;18.28;100.00;94413.47;1718166;82;20942;-53
2022/08/13 05:01:04;;;;;;;40.52;26.10;;;;;;;18.29;100.00;94415.73;1677142;83;21131;-52
2022/08/13 05:03:33;;;;;;;30.60;23.05;;;;;;;18.31;100.00;94419.42;1674266;83;21072;-53
2022/08/13 05:06:01;;;;;;;35.50;24.98;;;;;;;18.34;100.00;94416.39;1731244;81;20983;-53
2022/08/13 05:08:31;;;;;;;35.23;28.20;;;;;;;18.38;100.00;94418.30;1750772;80;21533;-53
2022/08/13 05:10:59;;;;;;;36.40;27.55;;;;;;;18.40;100.00;94424.73;1740217;81;21080;-53
2022/08/13 05:13:32;;;;;;;35.55;25.80;;;;;;;18.43;100.00;94422.36;1746161;81;21894;-53
2022/08/13 05:16:03;;;;;;;35.13;26.50;;;;;;;18.46;100.00;94421.34;1746195;79;21434;-52
2022/08/13 05:18:32;;;;;;;37.88;25.23;;;;;;;18.47;100.00;94415.24;1750350;81;21023;-55
2022/08/13 05:21:03;;;;;;;39.30;28.38;;;;;;;18.47;100.00;94415.89;1733540;80;21601;-52
2022/08/13 05:23:34;;;;;;;45.78;31.30;;;;;;;18.50;100.00;94419.80;1750746;79;21018;-53
2022/08/13 05:26:02;;;;;;;41.05;28.80;;;;;;;18.57;100.00;94414.36;1754189;80;21568;-52
2022/08/13 05:28:31;;;;;;;36.23;25.68;;;;;;;18.62;100.00;94410.19;1718952;82;21589;-52
2022/08/13 05:30:59;;;;;;;28.95;23.40;;;;;;;18.65;99.90;94418.92;1727242;82;20947;-52
2022/08/13 05:33:28;;;;;;;35.10;25.17;;;;;;;18.65;99.82;94405.64;1719591;82;21002;-53
2022/08/13 05:35:58;;;;;;;32.63;26.02;;;;;;;18.67;100.00;94409.42;1700547;82;21022;-53
2022/08/13 05:38:27;;;;;;;34.43;25.52;;;;;;;18.73;99.97;94417.16;1731783;82;21771;-52
2022/08/13 05:40:58;;;;;;;35.70;25.27;;;;;;;18.77;99.50;94417.66;1726905;82;21538;-52
2022/08/13 05:43:28;;;;;;;32.38;24.40;;;;;;;18.79;99.44;94419.30;1726403;82;21434;-52
2022/08/13 05:45:59;;;;;;;31.95;23.42;;;;;;;18.83;99.17;94412.09;1670303;83;21273;-52
2022/08/13 05:48:35;;;;;;;30.95;24.63;;;;;;;18.88;98.84;94414.87;1649577;84;21569;-53
2022/08/13 05:51:06;;;;;;;43.00;27.17;;;;;;;18.91;98.50;94412.45;1651653;84;21442;-57
2022/08/13 05:53:33;;;;;;;46.28;27.98;;;;;;;18.95;98.25;94408.77;1751615;80;20986;-52
2022/08/13 05:56:02;;;;;;;34.03;24.72;;;;;;;18.99;98.02;94405.73;1754685;80;21002;-54
2022/08/13 05:58:30;;;;;;;41.73;24.30;;;;;;;19.05;97.59;94405.08;1751648;80;21021;-56
2022/08/13 06:03:44;;;;;;;33.65;26.80;;;;;;;19.05;96.89;94394.67;1748085;81;21158;-52
2022/08/13 06:06:15;;;;;;;35.48;27.35;;;;;;;19.05;96.72;94397.46;1752506;81;21114;-52
2022/08/13 06:08:44;;;;;;;32.98;24.98;;;;;;;19.10;96.95;94393.15;1733480;81;20954;-53
2022/08/13 06:11:16;;;;;;;41.88;26.68;;;;;;;19.16;96.48;94390.50;1730270;80;20965;-54
2022/08/13 06:13:48;;;;;;;28.85;22.73;;;;;;;19.28;96.14;94394.80;1740348;80;20970;-53
2022/08/13 06:16:20;;;;;;;30.00;23.32;;;;;;;19.42;94.68;94383.97;1710587;81;21114;-52
2022/08/13 06:18:48;;;;;;;27.82;23.60;;;;;;;19.53;93.57;94383.92;1752203;81;21144;-52
2022/08/13 06:21:18;;;;;;;36.00;26.27;;;;;;;19.61;91.46;94376.54;1751193;79;21446;-52
2022/08/13 06:23:46;;;;;;;44.88;31.55;;;;;;;19.63;91.08;94380.97;1729226;82;20966;-52
2022/08/13 06:26:15;;;;;;;40.78;29.18;;;;;;;19.72;91.09;94378.52;1715318;82;20994;-52
2022/08/13 06:28:44;;;;;;;33.45;27.25;;;;;;;19.86;91.10;94375.39;1733150;82;21213;-52
2022/08/13 06:31:14;;;;;;;39.10;27.40;;;;;;;20.04;90.27;94382.41;1728003;82;21038;-51
2022/08/13 06:33:41;;;;;;;35.63;23.07;;;;;;;20.23;89.43;94367.32;1719014;82;21034;-54
2022/08/13 06:36:11;;;;;;;36.38;25.15;;;;;;;20.39;88.32;94354.61;1663254;82;21102;-52
2022/08/13 06:38:49;;;;;;;31.75;23.57;;;;;;;20.48;86.21;94361.91;1688095;84;21070;-53
2022/08/13 06:41:20;;;;;;;33.80;23.32;;;;;;;20.52;85.78;94361.76;1686845;85;21220;-52
2022/08/13 06:43:50;;;;;;;39.73;26.93;;;;;;;20.55;84.50;94355.13;1686596;85;20966;-52
2022/08/13 06:46:22;;;;;;;31.02;22.45;;;;;;;20.51;84.30;94353.88;1686607;84;21090;-54
2022/08/13 06:48:51;;;;;;;34.43;22.27;;;;;;;20.51;83.86;94349.69;1686917;85;21050;-53
2022/08/13 06:51:20;;;;;;;32.67;22.37;;;;;;;20.52;83.23;94349.84;1641519;85;21035;-53
2022/08/13 06:53:49;;;;;;;30.30;22.07;;;;;;;20.56;82.83;94352.44;1686630;84;21306;-53
2022/08/13 06:56:26;;;;;;;32.65;22.42;;;;;;;20.57;82.41;94357.41;1686262;84;20987;-52
2022/08/13 06:58:58;;;;;;;35.10;23.05;;;;;;;20.55;81.85;94352.33;1686406;85;21074;-53
2022/08/13 07:01:27;;;;;;;35.73;22.45;;;;;;;20.56;81.73;94355.23;1686746;85;21036;-53
2022/08/13 07:03:55;;;;;;;31.02;21.80;;;;;;;20.62;81.50;94352.41;1686912;84;20974;-55
2022/08/13 07:06:26;;;;;;;32.83;23.20;;;;;;;20.70;81.29;94352.70;1663734;85;21938;-54
2022/08/13 07:08:57;;;;;;;37.80;25.23;;;;;;;20.77;80.98;94345.13;1685200;85;21037;-57
2022/08/13 07:11:28;;;;;;;38.58;25.02;;;;;;;20.83;80.58;94352.08;1640557;85;21085;-55
2022/08/13 07:13:59;;;;;;;32.25;21.70;;;;;;;20.92;80.66;94351.78;1662455;85;21482;-55
2022/08/13 07:16:34;;;;;;;41.75;22.30;;;;;;;21.06;80.23;94355.56;1687087;85;21019;-53
2022/08/13 07:19:00;;;;;;;32.05;20.70;;;;;;;21.22;78.93;94353.87;1685719;85;22026;-54
2022/08/13 07:21:29;;;;;;;30.30;21.93;;;;;;;21.42;78.26;94351.36;1686791;84;21050;-54
2022/08/13 07:23:57;;;;;;;28.62;21.57;;;;;;;21.69;77.00;94352.33;1686660;85;21022;-54
2022/08/13 07:26:28;;;;;;;28.17;21.45;;;;;;;;;;1686891;85;21022;-53
2022/08/13 07:28:56;;;;;;;29.98;21.40;;;;;;;22.08;75.15;94356.88;1726481;82;20954;-53
2022/08/13 07:31:27;;;;;;;31.77;21.05;;;;;;;22.29;74.39;94362.70;1726391;82;21376;-52
2022/08/13 07:33:56;;;;;;;28.73;21.27;;;;;;;22.44;73.92;94365.16;1723862;82;21010;-53
2022/08/13 07:36:27;;;;;;;29.20;20.95;;;;;;;22.60;73.17;94366.18;1729405;82;21107;-52
2022/08/13 07:38:56;;;;;;;32.10;20.97;;;;;;;22.75;73.68;94363.01;1717459;81;20970;-53
2022/08/13 07:41:27;;;;;;;31.77;22.00;;;;;;;22.81;72.71;94365.73;1735831;80;21109;-54
2022/08/13 07:43:54;;;;;;;25.35;20.12;;;;;;;22.77;72.46;94370.24;1732805;81;21865;-54
2022/08/13 07:46:23;;;;;;;31.70;20.43;;;;;;;22.76;71.84;94365.92;1751256;81;20985;-52
2022/08/13 07:48:52;;;;;;;28.85;21.17;;;;;;;22.74;70.86;94360.09;1723394;80;21041;-54
2022/08/13 07:51:21;;;;;;;26.42;18.87;;;;;;;22.78;71.18;94359.13;1747029;79;21014;-53
2022/08/13 07:53:54;;;;;;;29.18;19.37;;;;;;;22.82;71.33;94358.16;1753840;80;21057;-54
2022/08/13 07:56:32;;;;;;;29.80;18.82;;;;;;;22.88;71.37;94358.81;1736524;81;21122;-55
2022/08/13 07:59:09;;;;;;;28.30;17.95;;;;;;;23.01;71.11;94357.45;1747635;80;20991;-56
2022/08/13 08:01:50;;;;;;;26.35;18.75;;;;;;;23.16;70.38;94357.72;1725242;81;20966;-53
2022/08/13 08:04:19;;;;;;;25.52;18.70;;;;;;;23.25;69.77;94362.16;1754212;80;21063;-54
2022/08/13 08:06:48;;;;;;;32.00;18.98;;;;;;;23.31;69.14;94364.97;1754762;80;21498;-54
2022/08/13 08:09:22;;;;;;;29.92;19.17;;;;;;;23.41;69.19;94363.23;1735883;82;21174;-53
2022/08/13 08:14:39;;;;;;;25.72;17.98;;;;;;;23.75;67.83;94361.95;1755810;79;20949;-53
2022/08/13 08:17:08;;;;;;;26.90;17.80;;;;;;;23.76;68.01;94355.77;1733862;79;21517;-53
2022/08/13 08:19:38;;;;;;;26.12;17.55;;;;;;;23.81;67.38;94359.13;1753835;80;20993;-55
2022/08/13 08:22:07;;;;;;;27.67;19.85;;;;;;;23.89;67.28;94355.78;1715356;81;21406;-52
2022/08/13 08:24:35;;;;;;;29.10;19.12;;;;;;;23.94;66.72;94352.09;1701202;82;21053;-53
2022/08/13 08:27:04;;;;;;;24.35;17.60;;;;;;;23.99;67.18;94351.98;1725270;81;20988;-55
2022/08/13 08:29:34;;;;;;;27.50;18.73;;;;;;;24.09;66.56;94349.47;1721891;81;21011;-53
2022/08/13 08:32:06;;;;;;;27.05;19.75;;;;;;;24.11;66.59;94351.08;1701303;82;21046;-54
2022/08/13 08:34:33;;;;;;;29.57;20.25;;;;;;;24.08;65.88;94347.96;1700421;81;21424;-54
2022/08/13 08:37:01;;;;;;;29.72;20.62;;;;;;;24.07;65.63;94350.67;1699955;82;21093;-53
2022/08/13 08:42:36;;;;;;;30.37;20.60;;;;;;;24.03;65.77;94347.44;1701306;82;21112;-54
2022/08/13 08:45:14;;;;;;;30.23;22.02;;;;;;;23.91;65.55;94344.02;1681373;83;20963;-55
2022/08/13 08:47:43;;;;;;;28.23;21.15;;;;;;;23.71;66.13;94343.23;1706685;82;21269;-56
2022/08/13 08:50:11;;;;;;;35.40;20.90;;;;;;;23.62;66.21;94339.47;1751252;81;21001;-52
2022/08/13 08:55:27;;;;;;;34.25;22.22;;;;;;;23.43;67.43;94338.17;1753635;79;20969;-54
2022/08/13 08:57:56;;;;;;;30.97;21.40;;;;;;;23.44;67.90;94336.13;1750530;80;21117;-54
2022/08/13 09:00:24;;;;;;;29.77;20.45;;;;;;;23.49;67.88;94340.88;1721321;82;21528;-52
2022/08/13 09:02:54;;;;;;;34.45;22.25;;;;;;;23.50;68.05;94337.55;1748800;80;21072;-56
2022/08/13 09:05:24;;;;;;;37.30;24.43;;;;;;;23.51;67.92;94332.03;1736253;80;21070;-53
2022/08/13 09:07:53;;;;;;;40.65;24.47;;;;;;;23.54;67.20;94343.58;1719276;81;21018;-54
2022/08/13 09:10:23;;;;;;;31.93;21.85;;;;;;;23.61;67.15;94339.37;1718721;83;20986;-52
2022/08/13 09:12:52;;;;;;;36.55;22.58;;;;;;;23.73;67.24;94332.23;1680723;84;21205;-54
2022/08/13 09:15:22;;;;;;;32.73;22.00;;;;;;;23.82;67.23;94333.98;1642031;86;20990;-53
2022/08/13 09:17:51;;;;;;;31.93;20.88;;;;;;;23.89;66.46;94334.70;1673058;83;21077;-53
2022/08/13 09:20:23;;;;;;;36.55;23.15;;;;;;;23.96;66.49;94338.25;1702791;83;21589;-55
2022/08/13 09:23:12;;;;;;;31.42;21.15;;;;;;;23.99;65.91;94338.59;1705108;84;20998;-53
2022/08/13 09:25:48;;;;;;;33.15;22.93;;;;;;;24.06;65.49;94333.70;1716657;81;21859;-54
2022/08/13 09:28:10;;;;;;;33.20;22.13;;;;;;;24.10;65.25;94332.70;1720513;83;21642;-52
2022/08/13 09:30:39;;;;;;;33.28;22.10;;;;;;;24.17;65.57;94324.36;1720446;83;21392;-53
2022/08/13 09:33:09;;;;;;;33.20;22.80;;;;;;;24.17;65.50;94330.66;1720927;81;21485;-53
2022/08/13 09:35:39;;;;;;;30.02;21.30;;;;;;;24.06;64.94;94333.03;1725887;83;20987;-52
2022/08/13 09:38:07;;;;;;;32.93;22.77;;;;;;;23.94;64.65;94333.09;1713932;82;22809;-53
2022/08/13 09:40:46;;;;;;;29.05;21.05;;;;;;;23.79;64.73;94329.39;1723199;81;21072;-53
2022/08/13 09:43:22;;;;;;;33.85;22.35;;;;;;;23.71;64.95;94334.17;1713128;83;21442;-54
2022/08/13 09:45:51;;;;;;;34.48;22.98;;;;;;;23.64;65.08;94331.26;1675566;82;48790;-52
2022/08/13 09:48:21;;;;;;;30.72;22.05;;;;;;;23.52;65.81;94332.14;1722518;82;21053;-54
2022/08/13 09:50:49;;;;;;;27.77;20.70;;;;;;;23.52;65.33;94326.52;1726189;83;21143;-53
2022/08/13 09:53:17;;;;;;;33.20;21.82;;;;;;;23.55;65.99;94322.63;1720247;81;21080;-53
2022/08/13 09:55:45;;;;;;;28.42;21.35;;;;;;;23.56;65.92;94332.56;1693989;82;20961;-53
2022/08/13 09:58:13;;;;;;;28.50;20.12;;;;;;;23.63;66.37;94328.34;1724091;83;21049;-52
2022/08/13 10:00:45;;;;;;;27.22;19.48;;;;;;;23.67;66.02;94321.74;1673912;84;21022;-53
2022/08/13 10:03:12;;;;;;;29.37;21.42;;;;;;;23.67;66.02;94320.34;1695770;83;21144;-53
2022/08/13 10:05:41;;;;;;;28.12;19.70;;;;;;;23.63;66.15;94319.28;1689438;84;21182;-53
2022/08/13 10:08:16;;;;;;;38.73;20.57;;;;;;;23.60;66.29;94316.13;1687132;82;21505;-53
2022/08/13 10:10:51;;;;;;;32.35;22.25;;;;;;;23.62;66.02;94316.37;1703496;83;21443;-53
2022/08/13 10:13:17;;;;;;;26.35;19.57;;;;;;;23.66;66.83;94316.78;1698672;83;21055;-53
2022/08/13 10:15:45;;;;;;;25.00;18.30;;;;;;;23.73;66.32;94316.12;1699729;83;21889;-52
2022/08/13 10:18:13;;;;;;;24.05;17.05;;;;;;;23.79;65.62;94316.75;1725392;83;21067;-53
2022/08/13 10:20:45;;;;;;;28.75;19.20;;;;;;;23.84;65.34;94310.94;1717953;81;21027;-55
2022/08/13 10:23:13;;;;;;;25.10;18.57;;;;;;;23.91;65.29;94306.81;1722371;81;21449;-52
2022/08/13 10:25:45;;;;;;;22.00;16.32;;;;;;;23.98;64.74;94305.50;1704352;84;21078;-54
2022/08/13 10:28:26;;;;;;;27.00;18.27;;;;;;;24.11;64.24;94301.89;1702239;83;21205;-53
2022/08/13 10:30:54;;;;;;;;;;;;;;;24.24;63.96;94303.26;1701546;83;20967;-54
2022/08/13 10:33:23;;;;;;;24.70;16.75;;;;;;;24.41;63.50;94291.70;1698127;83;20170;-53
2022/08/13 10:35:53;;;;;;;26.30;18.32;;;;;;;24.52;62.94;94291.47;1695925;83;21595;-53
2022/08/13 10:38:26;;;;;;;24.05;17.20;;;;;;;24.66;62.45;94294.33;1644900;85;21143;-54
2022/08/13 10:40:55;;;;;;;27.73;16.95;;;;;;;24.85;61.93;94290.64;1719286;81;21184;-53
2022/08/13 10:43:23;;;;;;;22.98;16.45;;;;;;;25.04;61.02;94289.75;1719287;81;20970;-53
2022/08/13 10:45:55;;;;;;;19.50;14.33;;;;;;;25.23;61.04;94285.30;1720580;81;21012;-53
2022/08/13 10:48:25;;;;;;;28.83;17.90;;;;;;;25.45;60.82;94293.89;1719451;81;21540;-54
2022/08/13 10:50:53;;;;;;;19.85;15.23;;;;;;;25.62;59.41;94280.08;1720273;81;20990;-53
2022/08/13 10:56:11;;;;;;;22.10;15.78;;;;;;;26.41;57.67;94290.62;1720605;83;21032;-53
2022/08/13 10:58:40;;;;;;;16.65;13.75;;;;;;;26.75;57.07;94286.20;1722214;81;21025;-54
2022/08/13 11:01:08;;;;;;;20.25;14.28;;;;;;;27.01;56.33;94287.22;1719357;83;21461;-52
2022/08/13 11:03:36;;;;;;;15.00;11.95;;;;;;;27.39;56.09;94280.89;1719336;81;21461;-54
2022/08/13 11:06:07;;;;;;;16.70;12.75;;;;;;;27.77;55.10;94284.40;1723877;83;21192;-54
2022/08/13 11:08:37;;;;;;;16.23;11.78;;;;;;;28.25;54.02;94279.56;1721967;81;21426;-54
2022/08/13 11:11:06;;;;;;;14.38;12.37;;;;;;;28.84;52.86;94278.38;1718061;81;21029;-54
2022/08/13 11:13:36;;;;;;;14.53;11.90;;;;;;;29.53;50.19;94270.17;1726080;83;21067;-54
2022/08/13 11:16:06;;;;;;;18.87;12.55;;;;;;;30.19;48.65;94276.41;1700001;83;20950;-54
2022/08/13 11:18:36;;;;;;;12.65;10.68;;;;;;;30.75;48.09;94278.12;1700661;83;21442;-53
2022/08/13 11:21:07;;;;;;;12.75;10.93;;;;;;;31.21;46.14;94270.41;1695371;83;20963;-54
2022/08/13 11:23:34;;;;;;;15.03;11.73;;;;;;;31.53;45.59;94272.86;1662209;85;21027;-54
2022/08/13 11:26:02;;;;;;;13.05;11.30;;;;;;;31.74;45.27;94270.98;1723767;81;21061;-54
2022/08/13 11:28:30;;;;;;;13.85;12.37;;;;;;;31.66;43.44;94266.12;1722424;83;21005;-53
2022/08/13 11:30:58;;;;;;;13.15;11.75;;;;;;;31.26;44.63;94263.69;1719122;81;21459;-54
2022/08/13 11:33:26;;;;;;;16.10;12.70;;;;;;;30.89;44.69;94265.77;1687330;82;21407;-53
2022/08/13 11:35:55;;;;;;;16.50;13.50;;;;;;;30.56;45.14;94264.55;1723640;81;20997;-54
2022/08/13 11:38:23;;;;;;;14.68;12.73;;;;;;;30.26;46.07;94264.97;1697474;83;21486;-53
2022/08/13 11:40:54;;;;;;;15.20;13.22;;;;;;;29.98;45.91;94256.22;1697110;83;21076;-54
2022/08/13 11:43:27;;;;;;;17.82;14.53;;;;;;;29.73;46.65;94251.33;1687207;82;21127;-52
2022/08/13 11:45:56;;;;;;;14.58;13.05;;;;;;;29.53;47.62;94251.05;1720684;83;21013;-55
2022/08/13 11:48:24;;;;;;;18.85;14.20;;;;;;;29.20;47.68;94243.25;1681538;83;20951;-54